Time;durP1;ratioP1;P1;durP2;ratioP2;P2;SDS_P1;SDS_P2;PMS_P1;PMS_P2;Temp;Humidity;BMP_temperature;BMP_pressure;BME280_temperature;BME280_humidity;BME280_pressure;Samples;Min_cycle;Max_cycle;Signal;HPM_P1;HPM_P2
2024/01/16 00:01:36;;;;;;;5.47;1.67;;;;;;;-1.21;84.19;99569.63;6214634;23;20020;-70
2024/01/16 00:04:03;;;;;;;7.57;1.15;;;;;;;-1.27;85.31;99578.00;6239382;23;20035;-70
2024/01/16 00:06:32;;;;;;;7.15;1.90;;;;;;;-1.22;85.60;99573.25;6239966;23;20047;-70
2024/01/16 00:08:59;;;;;;;13.40;1.90;;;;;;;-1.27;85.91;99582.47;6240915;23;20362;-71
2024/01/16 00:11:26;;;;;;;6.72;1.83;;;;;;;-1.22;85.89;99581.22;6239933;23;20028;-70
2024/01/16 00:13:54;;;;;;;6.63;1.42;;;;;;;-1.24;86.12;99569.81;6242354;23;20020;-70
2024/01/16 00:16:20;;;;;;;12.95;2.03;;;;;;;-1.46;85.59;99559.59;6239625;23;20391;-69
2024/01/16 00:18:47;;;;;;;7.20;1.50;;;;;;;-1.59;86.39;99567.38;6242019;23;20028;-69
2024/01/16 00:21:14;;;;;;;9.85;1.75;;;;;;;-1.52;86.64;99570.56;6239160;23;20020;-69
2024/01/16 00:23:41;;;;;;;7.18;1.85;;;;;;;-1.41;85.78;99573.44;6208670;23;20375;-70
2024/01/16 00:26:19;;;;;;;4.82;1.55;;;;;;;-1.44;85.15;99570.97;6239701;23;20020;-70
2024/01/16 00:28:46;;;;;;;8.00;1.58;;;;;;;-1.58;85.45;99579.72;6213106;23;20020;-69
2024/01/16 00:31:13;;;;;;;7.18;1.30;;;;;;;-1.60;86.02;99578.97;6239353;23;20031;-69
2024/01/16 00:33:39;;;;;;;5.97;1.80;;;;;;;-1.64;86.24;99581.91;6238869;23;20050;-69
2024/01/16 00:36:06;;;;;;;6.28;1.40;;;;;;;-1.65;86.49;99583.69;6239861;23;20028;-70
2024/01/16 00:38:34;;;;;;;8.70;1.52;;;;;;;-1.61;86.40;99576.41;6241114;23;20020;-69
2024/01/16 00:41:00;;;;;;;6.70;1.52;;;;;;;-1.63;87.40;99579.16;6241051;23;20406;-69
2024/01/16 00:43:27;;;;;;;11.20;2.22;;;;;;;-1.75;88.95;99584.28;6240937;23;20516;-69
2024/01/16 00:45:53;;;;;;;12.00;2.35;;;;;;;-1.77;89.11;99594.16;6241238;23;20038;-69
2024/01/16 00:48:21;;;;;;;8.50;2.03;;;;;;;-1.88;89.20;99595.59;6242087;22;20024;-69
2024/01/16 00:50:49;;;;;;;5.70;1.83;;;;;;;-1.81;89.28;99606.75;6242785;23;20012;-69
2024/01/16 00:53:17;;;;;;;14.27;2.28;;;;;;;-1.61;88.26;99602.97;6240367;23;20027;-68
2024/01/16 00:55:43;;;;;;;9.77;2.40;;;;;;;-1.52;87.78;99622.88;6240681;23;20515;-69
2024/01/16 00:58:10;;;;;;;5.93;1.92;;;;;;;-1.47;88.60;99626.97;6242287;23;20530;-69
2024/01/16 01:00:37;;;;;;;8.95;1.98;;;;;;;-1.32;87.69;99619.94;6241024;23;20455;-69
2024/01/16 01:03:04;;;;;;;6.65;1.92;;;;;;;-1.31;88.06;99616.34;6240533;23;20048;-69
2024/01/16 01:05:31;;;;;;;14.48;1.95;;;;;;;-1.16;87.61;99620.78;6215619;23;20091;-69
2024/01/16 01:07:58;;;;;;;4.75;1.35;;;;;;;-1.17;87.91;99629.72;6241860;23;20024;-69
2024/01/16 01:10:25;;;;;;;7.70;1.85;;;;;;;-1.11;88.18;99637.31;6240536;23;20019;-69
2024/01/16 01:12:53;;;;;;;7.63;1.38;;;;;;;-1.16;88.65;99647.41;6242487;23;20020;-69
2024/01/16 01:15:20;;;;;;;10.93;2.10;;;;;;;-1.78;90.20;99654.41;6242491;23;20039;-69
2024/01/16 01:17:51;;;;;;;5.85;1.90;;;;;;;-2.07;91.64;99652.50;6241121;23;20083;-69
2024/01/16 01:20:18;;;;;;;6.03;1.80;;;;;;;-2.28;93.27;99660.66;6241376;23;20095;-69
2024/01/16 01:22:46;;;;;;;9.93;1.77;;;;;;;-2.44;93.26;99665.06;6240191;23;20096;-69
2024/01/16 01:25:13;;;;;;;12.55;2.15;;;;;;;-2.20;93.26;99669.09;6213387;23;20031;-69
2024/01/16 01:27:40;;;;;;;4.20;1.48;;;;;;;-2.05;92.77;99682.47;6238985;23;20098;-69
2024/01/16 01:30:10;;;;;;;5.28;1.15;;;;;;;-1.98;92.66;99678.56;6238882;23;20528;-72
2024/01/16 01:32:38;;;;;;;3.92;1.13;;;;;;;-2.44;92.62;99680.97;6240090;23;20031;-70
2024/01/16 01:35:05;;;;;;;4.35;1.38;;;;;;;-2.67;92.58;99689.28;6239236;23;20435;-71
2024/01/16 01:37:32;;;;;;;3.75;1.48;;;;;;;-2.58;92.96;99694.09;6238809;23;20332;-71
2024/01/16 01:39:59;;;;;;;10.23;1.60;;;;;;;-2.44;93.27;99680.97;6240673;23;20071;-72
2024/01/16 01:42:25;;;;;;;9.15;1.60;;;;;;;-2.41;92.74;99680.81;6241189;23;20395;-71
2024/01/16 01:44:52;;;;;;;3.10;1.30;;;;;;;-2.37;92.62;99682.38;6240617;23;20020;-71
2024/01/16 01:47:19;;;;;;;3.78;1.20;;;;;;;-2.69;92.55;99688.47;6241706;22;20027;-71
2024/01/16 01:49:46;;;;;;;4.28;1.42;;;;;;;-2.67;92.76;99690.13;6241566;23;20052;-71
2024/01/16 01:52:13;;;;;;;6.13;1.27;;;;;;;-2.97;91.99;99697.81;6240969;23;20091;-71
2024/01/16 01:54:40;;;;;;;8.98;1.35;;;;;;;-2.91;92.59;99699.31;6241624;23;20020;-71
2024/01/16 01:57:09;;;;;;;4.10;1.10;;;;;;;-3.04;92.03;99696.41;6241194;23;20032;-71
2024/01/16 01:59:36;;;;;;;6.35;1.20;;;;;;;-2.73;92.72;99698.41;6240736;23;20009;-70
2024/01/16 02:02:04;;;;;;;3.55;1.30;;;;;;;-2.76;92.33;99699.41;6241466;23;20099;-71
2024/01/16 02:04:31;;;;;;;6.18;1.92;;;;;;;-2.46;92.08;99706.75;6240559;23;20027;-71
2024/01/16 02:07:31;;;;;;;6.05;1.70;;;;;;;-2.65;90.92;99708.63;6216725;23;20020;-70
2024/01/16 02:09:58;;;;;;;6.63;1.20;;;;;;;-2.52;91.01;99710.56;6241559;23;20351;-70
2024/01/16 02:12:24;;;;;;;6.28;1.40;;;;;;;-2.57;90.68;99711.75;6241625;23;20027;-70
2024/01/16 02:14:51;;;;;;;3.83;1.40;;;;;;;-2.51;91.43;99722.06;6214307;23;20095;-69
2024/01/16 02:17:18;;;;;;;8.02;1.40;;;;;;;-2.69;91.11;99723.84;6239931;23;20063;-69
2024/01/16 02:19:45;;;;;;;7.07;1.90;;;;;;;-2.55;91.79;99731.13;6239962;23;20024;-69
2024/01/16 02:22:19;;;;;;;3.90;1.13;;;;;;;-2.46;92.03;99735.97;6240434;23;20032;-69
2024/01/16 02:24:49;;;;;;;7.55;1.63;;;;;;;-2.62;90.79;99740.31;6240037;23;20509;-69
2024/01/16 02:27:15;;;;;;;7.07;1.42;;;;;;;-2.54;92.15;99740.78;6240052;23;20028;-69
2024/01/16 02:29:43;;;;;;;6.55;1.40;;;;;;;-2.37;91.99;99745.25;6238754;23;20016;-68
2024/01/16 02:32:15;;;;;;;10.00;1.90;;;;;;;-2.57;91.44;99751.59;6239824;23;20034;-69
2024/01/16 02:34:41;;;;;;;9.40;1.70;;;;;;;-2.72;91.92;99740.78;6240539;23;20031;-69
2024/01/16 02:37:09;;;;;;;9.82;1.70;;;;;;;-2.58;92.69;99753.38;6239820;23;20079;-68
2024/01/16 02:39:35;;;;;;;7.85;1.63;;;;;;;-2.63;91.98;99754.53;6239708;23;20020;-69
2024/01/16 02:42:02;;;;;;;4.13;2.00;;;;;;;-2.67;91.77;99759.13;6240645;23;20047;-69
2024/01/16 02:44:28;;;;;;;8.35;1.98;;;;;;;-2.63;91.56;99760.69;6240805;23;20020;-68
2024/01/16 02:46:55;;;;;;;8.75;2.05;;;;;;;-2.58;91.76;99768.41;6239911;22;20486;-69
2024/01/16 02:49:22;;;;;;;10.63;2.25;;;;;;;-2.40;92.11;99772.81;6240850;23;20020;-69
2024/01/16 02:51:49;;;;;;;6.68;1.60;;;;;;;-2.52;90.76;99774.28;6215138;23;20020;-69
2024/01/16 02:54:15;;;;;;;9.60;2.25;;;;;;;-2.53;90.98;99782.34;6240566;23;20074;-70
2024/01/16 02:56:42;;;;;;;6.10;1.55;;;;;;;-2.41;92.08;99787.03;6240764;23;20020;-69
2024/01/16 02:59:09;;;;;;;8.52;2.30;;;;;;;-2.42;91.10;99789.75;6240053;23;20031;-70
2024/01/16 03:01:36;;;;;;;6.40;1.55;;;;;;;-2.52;90.89;99792.88;6240171;23;20026;-70
2024/01/16 03:04:02;;;;;;;5.47;1.63;;;;;;;-2.37;91.47;99793.91;6241317;23;20032;-70
2024/01/16 03:06:32;;;;;;;6.72;1.52;;;;;;;-2.44;90.51;99798.66;6241591;23;20024;-70
2024/01/16 03:08:59;;;;;;;7.78;2.35;;;;;;;-2.47;91.00;99800.63;6243065;23;20078;-70
2024/01/16 03:11:25;;;;;;;8.57;1.70;;;;;;;-2.51;90.51;99799.91;6241139;23;20024;-70
2024/01/16 03:13:53;;;;;;;8.32;1.70;;;;;;;-2.57;90.77;99802.03;6242109;23;20020;-70
2024/01/16 03:16:19;;;;;;;3.95;1.75;;;;;;;-2.50;91.29;99814.88;6241946;23;20050;-70
2024/01/16 03:18:47;;;;;;;7.88;2.13;;;;;;;-2.34;90.54;99825.63;6243724;23;20024;-70
2024/01/16 03:21:14;;;;;;;8.65;2.33;;;;;;;-2.17;89.85;99833.59;6243765;23;20103;-70
2024/01/16 03:23:41;;;;;;;7.15;1.70;;;;;;;-2.40;90.62;99825.06;6243735;23;20447;-70
2024/01/16 03:26:12;;;;;;;7.38;2.53;;;;;;;-2.46;91.06;99827.09;6243033;23;20028;-71
2024/01/16 03:28:39;;;;;;;7.85;1.85;;;;;;;-2.37;90.58;99836.41;6243991;23;20012;-70
2024/01/16 03:31:06;;;;;;;8.23;2.17;;;;;;;-2.49;90.46;99842.28;6243368;23;20023;-70
2024/01/16 03:33:41;;;;;;;6.75;1.77;;;;;;;-2.57;90.72;99845.34;6244034;23;20022;-70
2024/01/16 03:36:09;;;;;;;5.35;1.48;;;;;;;-2.55;90.96;99853.22;6243933;23;20078;-70
2024/01/16 03:38:39;;;;;;;7.60;1.80;;;;;;;-2.54;90.78;99865.56;6243558;23;20016;-70
2024/01/16 03:41:07;;;;;;;10.70;2.20;;;;;;;-2.59;91.19;99870.22;6243715;23;20024;-70
2024/01/16 03:43:34;;;;;;;2.15;1.40;;;;;;;-2.62;91.46;99865.06;6244213;23;20416;-70
2024/01/16 03:46:01;;;;;;;8.50;1.73;;;;;;;-2.62;91.49;99873.91;6243752;23;20031;-71
2024/01/16 03:48:28;;;;;;;8.05;1.90;;;;;;;-2.62;91.50;99878.34;6244221;22;20124;-69
2024/01/16 03:50:55;;;;;;;5.38;1.70;;;;;;;-2.58;91.92;99879.91;6243672;23;20024;-69
2024/01/16 03:53:22;;;;;;;8.93;1.73;;;;;;;-2.62;91.25;99875.69;6243272;23;20027;-70
2024/01/16 03:55:49;;;;;;;8.63;2.17;;;;;;;-2.57;91.09;99876.34;6243446;23;20130;-69
2024/01/16 03:58:17;;;;;;;4.93;2.25;;;;;;;-2.55;90.87;99874.47;6243738;23;20078;-69
2024/01/16 04:00:44;;;;;;;7.72;2.08;;;;;;;-2.43;91.12;99879.19;6243745;23;20302;-69
2024/01/16 04:03:11;;;;;;;7.68;2.05;;;;;;;-2.51;90.33;99886.66;6243079;23;20028;-69
2024/01/16 04:05:38;;;;;;;5.47;2.30;;;;;;;-2.59;91.36;99880.84;6243311;23;20197;-70
2024/01/16 04:08:05;;;;;;;5.72;2.17;;;;;;;-2.56;91.23;99878.06;6242961;23;20359;-71
2024/01/16 04:10:31;;;;;;;8.68;2.30;;;;;;;-2.45;91.39;99892.53;6243417;23;20020;-68
2024/01/16 04:13:01;;;;;;;9.32;2.03;;;;;;;-2.45;91.02;99889.03;6243190;23;20024;-68
2024/01/16 04:15:28;;;;;;;4.03;1.88;;;;;;;-2.58;91.02;99893.19;6242198;23;20046;-68
2024/01/16 04:17:55;;;;;;;9.20;2.15;;;;;;;-2.41;91.61;99897.69;6242301;23;20083;-67
2024/01/16 04:20:21;;;;;;;12.15;2.33;;;;;;;-2.40;90.96;99902.91;6242989;23;20083;-68
2024/01/16 04:22:48;;;;;;;4.53;2.35;;;;;;;-2.52;91.04;99904.38;6216641;23;20035;-68
2024/01/16 04:25:15;;;;;;;7.93;2.25;;;;;;;-2.60;91.16;99908.31;6242406;23;20090;-68
2024/01/16 04:27:41;;;;;;;7.57;2.35;;;;;;;-2.63;91.14;99906.69;6241772;23;20071;-68
2024/01/16 04:30:09;;;;;;;5.53;2.38;;;;;;;-2.65;91.44;99920.97;6242792;23;20083;-68
2024/01/16 04:32:36;;;;;;;7.25;2.40;;;;;;;-2.66;91.77;99914.81;6242813;23;20030;-68
2024/01/16 04:35:03;;;;;;;6.90;2.40;;;;;;;-2.67;91.60;99913.09;6242949;23;20028;-70
2024/01/16 04:37:30;;;;;;;8.15;2.78;;;;;;;-2.65;91.67;99910.34;6244200;23;20020;-69
2024/01/16 04:39:58;;;;;;;7.03;2.40;;;;;;;-2.68;91.65;99911.34;6243511;23;20075;-69
2024/01/16 04:42:27;;;;;;;6.45;3.17;;;;;;;-2.69;92.12;99914.06;6242932;23;20039;-69
2024/01/16 04:44:54;;;;;;;14.48;3.13;;;;;;;-2.78;91.64;99910.91;6241890;23;20086;-69
2024/01/16 04:47:21;;;;;;;12.98;3.25;;;;;;;-2.82;91.71;99909.34;6241915;22;20363;-69
2024/01/16 04:49:47;;;;;;;13.63;2.88;;;;;;;-2.77;91.72;99912.66;6243059;23;20504;-69
2024/01/16 04:52:14;;;;;;;8.25;2.50;;;;;;;-2.64;90.54;99918.25;6242535;23;20181;-69
2024/01/16 04:54:40;;;;;;;10.20;2.70;;;;;;;-2.81;91.43;99919.03;6242760;23;20027;-70
2024/01/16 04:57:07;;;;;;;10.73;2.65;;;;;;;-2.73;91.74;99916.88;6243034;23;20109;-71
2024/01/16 04:59:34;;;;;;;7.80;2.63;;;;;;;-2.78;91.56;99916.22;6216354;23;20406;-69
2024/01/16 05:02:00;;;;;;;12.30;3.13;;;;;;;-2.86;92.23;99917.50;6242677;23;20020;-70
2024/01/16 05:04:27;;;;;;;6.40;2.50;;;;;;;-2.81;91.68;99923.47;6243260;23;20028;-69
2024/01/16 05:06:55;;;;;;;14.57;2.72;;;;;;;-2.75;91.88;99926.72;6216268;23;20086;-69
2024/01/16 05:09:21;;;;;;;6.93;2.38;;;;;;;-2.69;91.71;99935.31;6242714;23;20066;-69
2024/01/16 05:11:48;;;;;;;14.70;2.33;;;;;;;-2.70;92.12;99938.88;6242897;23;20020;-68
2024/01/16 05:14:15;;;;;;;11.07;2.70;;;;;;;-2.75;91.56;99934.66;6242241;23;20023;-68
2024/01/16 05:16:41;;;;;;;7.13;2.00;;;;;;;-2.55;90.83;99944.34;6243025;23;20016;-69
2024/01/16 05:19:08;;;;;;;7.75;2.60;;;;;;;-2.61;90.83;99935.81;6241893;23;20092;-68
2024/01/16 05:21:35;;;;;;;9.45;2.10;;;;;;;-2.58;90.98;99933.00;6241681;23;20406;-68
2024/01/16 05:24:02;;;;;;;6.70;2.50;;;;;;;-2.64;90.75;99938.63;6241746;23;20020;-70
2024/01/16 05:26:28;;;;;;;5.90;2.35;;;;;;;-2.63;91.55;99935.88;6242553;23;20023;-69
2024/01/16 05:28:55;;;;;;;7.00;2.38;;;;;;;-2.77;91.15;99931.22;6242770;23;20336;-69
2024/01/16 05:31:21;;;;;;;7.18;2.55;;;;;;;-2.80;91.78;99934.00;6242367;23;20078;-69
2024/01/16 05:33:48;;;;;;;5.80;2.28;;;;;;;-2.81;91.73;99934.94;6241784;23;20340;-69
2024/01/16 05:36:15;;;;;;;9.32;2.80;;;;;;;-2.80;90.82;99947.28;6241987;23;20095;-69
2024/01/16 05:38:42;;;;;;;5.28;2.28;;;;;;;-2.86;91.73;99950.22;6242548;23;20454;-69
2024/01/16 05:41:08;;;;;;;7.45;2.85;;;;;;;-2.81;91.74;99956.16;6242109;23;20016;-70
2024/01/16 05:43:35;;;;;;;12.20;3.65;;;;;;;-2.83;91.34;99950.09;6242160;23;20020;-69
2024/01/16 05:46:02;;;;;;;7.20;3.22;;;;;;;-2.97;91.65;99947.19;6215484;23;20028;-69
2024/01/16 05:48:28;;;;;;;8.63;3.45;;;;;;;-2.93;91.43;99959.41;6245708;22;20446;-68
2024/01/16 05:50:55;;;;;;;7.68;3.50;;;;;;;-2.92;91.90;99981.47;6274242;22;20026;-69
2024/01/16 05:53:22;;;;;;;6.70;3.33;;;;;;;-2.69;90.85;99972.47;6272997;22;20485;-68
2024/01/16 05:55:49;;;;;;;7.05;2.80;;;;;;;-2.77;90.67;99971.03;6272976;22;20030;-68
2024/01/16 05:58:15;;;;;;;6.18;2.92;;;;;;;-2.80;90.93;99970.31;6272860;22;20511;-71
2024/01/16 06:00:42;;;;;;;7.35;2.90;;;;;;;-2.97;90.81;99976.38;6272458;22;20023;-72
2024/01/16 06:03:08;;;;;;;7.20;3.00;;;;;;;-3.05;91.15;99982.03;6273352;22;20019;-73
2024/01/16 06:05:35;;;;;;;8.85;2.88;;;;;;;-2.99;91.01;99985.31;6272009;22;20031;-73
2024/01/16 06:08:02;;;;;;;15.07;2.75;;;;;;;-2.98;91.35;99987.03;6272245;22;20024;-71
2024/01/16 06:10:29;;;;;;;5.07;2.40;;;;;;;-2.87;91.42;99990.94;6245828;22;20355;-73
2024/01/16 06:12:56;;;;;;;7.82;2.67;;;;;;;-3.01;91.21;99986.25;6273387;22;20023;-73
2024/01/16 06:15:23;;;;;;;11.10;3.50;;;;;;;-3.04;91.63;99993.50;6272755;22;20020;-73
2024/01/16 06:17:49;;;;;;;5.88;2.53;;;;;;;-2.95;92.00;99997.53;6272744;22;20458;-73
2024/01/16 06:20:16;;;;;;;7.68;3.42;;;;;;;-2.88;91.57;100004.28;6272269;22;20073;-73
2024/01/16 06:22:43;;;;;;;11.45;3.17;;;;;;;-2.79;91.30;100007.38;6272552;22;20024;-73
2024/01/16 06:25:09;;;;;;;11.18;2.90;;;;;;;-2.63;90.28;100014.66;6244809;22;20028;-72
2024/01/16 06:27:36;;;;;;;11.40;3.08;;;;;;;-2.89;90.39;100007.88;6271802;22;20515;-71
2024/01/16 06:30:03;;;;;;;6.38;2.95;;;;;;;-2.86;90.92;100007.72;6272502;22;20024;-71
2024/01/16 06:32:30;;;;;;;9.15;2.83;;;;;;;-3.13;91.21;100007.16;6272749;22;20064;-72
2024/01/16 06:34:57;;;;;;;13.40;2.88;;;;;;;-3.22;91.88;100007.56;6273035;22;20028;-72
2024/01/16 06:37:23;;;;;;;12.13;3.13;;;;;;;-3.27;92.23;100009.53;6271693;22;20091;-72
2024/01/16 06:39:50;;;;;;;11.52;3.28;;;;;;;-3.33;92.23;100008.91;6271952;22;20074;-71
2024/01/16 06:42:17;;;;;;;8.25;2.92;;;;;;;-3.40;92.50;100019.81;6272323;22;20354;-73
2024/01/16 06:44:43;;;;;;;9.00;3.38;;;;;;;-3.38;93.14;100017.97;6272429;22;20086;-72
2024/01/16 06:47:10;;;;;;;8.80;2.92;;;;;;;-3.32;92.99;100023.88;6272554;22;20139;-74
2024/01/16 06:49:37;;;;;;;11.45;4.05;;;;;;;-3.26;93.10;100030.69;6272935;22;20454;-73
2024/01/16 06:52:04;;;;;;;10.07;3.42;;;;;;;-3.18;92.55;100038.31;6273194;22;20058;-72
2024/01/16 06:54:30;;;;;;;9.60;3.58;;;;;;;-3.12;92.83;100040.72;6274838;22;20019;-71
2024/01/16 06:56:57;;;;;;;10.40;3.70;;;;;;;-3.03;92.68;100043.84;6274999;22;20024;-72
2024/01/16 06:59:24;;;;;;;11.52;3.58;;;;;;;-3.01;92.75;100046.41;6273910;22;20376;-72
2024/01/16 07:01:51;;;;;;;10.52;3.75;;;;;;;-3.02;92.03;100050.88;6247732;22;20059;-73
2024/01/16 07:04:18;;;;;;;8.85;3.30;;;;;;;-2.99;92.12;100054.31;6273456;22;20024;-71
2024/01/16 07:06:46;;;;;;;10.18;3.42;;;;;;;-2.92;91.80;100061.94;6273467;22;20023;-74
2024/01/16 07:09:13;;;;;;;10.48;3.45;;;;;;;-2.83;91.24;100058.88;6273762;22;20020;-72
2024/01/16 07:19:14;;;;;;;10.25;4.60;;;;;;;-2.47;90.49;100084.72;6273489;22;20022;-71
2024/01/16 07:21:41;;;;;;;9.98;4.10;;;;;;;-2.34;89.99;100087.69;6273981;22;20027;-71
2024/01/16 07:27:54;;;;;;;9.45;4.43;;;;;;;-2.55;90.41;100095.69;6275276;22;20069;-72
2024/01/16 07:30:20;;;;;;;9.98;4.22;;;;;;;-2.62;91.11;100090.72;6273142;22;20028;-69
2024/01/16 07:32:48;;;;;;;11.35;5.07;;;;;;;-2.50;90.67;100096.31;6273806;22;20504;-70
2024/01/16 07:35:15;;;;;;;13.80;5.25;;;;;;;-2.56;91.20;100090.44;6273312;22;20046;-71
2024/01/16 07:37:42;;;;;;;11.18;5.50;;;;;;;-2.37;91.06;100091.34;6273074;22;20020;-71
2024/01/16 07:40:10;;;;;;;11.77;4.90;;;;;;;-2.43;90.85;100088.94;6272821;22;20098;-72
2024/01/16 07:42:36;;;;;;;8.98;4.47;;;;;;;-2.45;90.75;100093.47;6273703;22;20022;-71
2024/01/16 07:45:04;;;;;;;12.48;4.93;;;;;;;-2.59;91.05;100101.19;6273714;22;20095;-72
2024/01/16 07:47:31;;;;;;;12.40;5.25;;;;;;;-2.25;90.98;100104.06;6272944;22;20099;-71
2024/01/16 07:49:59;;;;;;;8.40;5.18;;;;;;;-2.38;90.36;100102.91;6273667;22;20331;-72
2024/01/16 07:52:27;;;;;;;10.07;4.32;;;;;;;-2.40;90.98;100107.38;6273704;22;20020;-72
2024/01/16 07:54:54;;;;;;;10.90;4.70;;;;;;;-2.45;90.55;100109.41;6273374;22;20027;-72
2024/01/16 07:57:21;;;;;;;11.43;4.78;;;;;;;-2.40;90.99;100117.16;6273506;22;20028;-71
2024/01/16 07:59:47;;;;;;;14.50;5.40;;;;;;;-2.40;90.73;100115.34;6273779;22;20520;-71
2024/01/16 08:02:14;;;;;;;17.48;5.75;;;;;;;-2.40;90.66;100123.31;6273278;22;20043;-71
2024/01/16 08:04:40;;;;;;;11.35;4.90;;;;;;;-2.33;90.36;100119.47;6273172;22;20458;-71
2024/01/16 08:07:07;;;;;;;11.25;5.00;;;;;;;-2.39;90.83;100125.06;6273408;22;20081;-72
2024/01/16 08:09:35;;;;;;;14.63;5.45;;;;;;;-2.41;91.37;100124.25;6272942;22;20525;-72
2024/01/16 08:12:02;;;;;;;11.90;5.55;;;;;;;-2.37;91.40;100131.19;6273204;22;20081;-71
2024/01/16 08:14:29;;;;;;;13.27;5.90;;;;;;;-2.34;90.80;100127.50;6274177;22;20042;-71
2024/01/16 08:16:55;;;;;;;11.68;6.30;;;;;;;-2.30;91.33;100129.97;6272975;22;20027;-71
2024/01/16 08:19:23;;;;;;;17.40;5.97;;;;;;;-2.23;90.29;100136.72;6273036;22;20019;-71
2024/01/16 08:21:49;;;;;;;17.17;5.85;;;;;;;-2.11;90.05;100137.97;6272839;22;20098;-71
2024/01/16 08:24:16;;;;;;;12.15;6.22;;;;;;;-2.09;90.76;100137.91;6273037;22;20409;-71
2024/01/16 08:26:42;;;;;;;14.75;5.72;;;;;;;-2.03;89.64;100137.59;6272798;22;20400;-71
2024/01/16 08:29:09;;;;;;;11.13;5.88;;;;;;;-2.04;89.64;100131.44;6272348;22;20343;-71
2024/01/16 08:31:35;;;;;;;15.55;6.20;;;;;;;-2.03;89.67;100135.81;6272823;22;20019;-71
2024/01/16 08:34:03;;;;;;;39.97;16.00;;;;;;;-1.93;89.28;100129.16;6246717;22;20450;-71
2024/01/16 08:36:30;;;;;;;33.47;11.02;;;;;;;-1.91;89.46;100137.91;6274130;22;20020;-72
2024/01/16 08:38:56;;;;;;;18.42;8.13;;;;;;;-1.83;89.37;100139.38;6272194;22;20020;-69
2024/01/16 08:41:23;;;;;;;19.83;6.00;;;;;;;-1.83;89.14;100132.25;6272419;22;20016;-70
2024/01/16 08:43:50;;;;;;;13.82;6.13;;;;;;;-1.69;89.27;100145.75;6271812;22;20080;-70
2024/01/16 08:46:19;;;;;;;11.75;5.82;;;;;;;-1.51;88.12;100141.34;6271231;22;20020;-70
2024/01/16 08:48:46;;;;;;;14.20;6.18;;;;;;;-1.69;88.43;100137.75;6272098;22;20024;-70
2024/01/16 08:51:14;;;;;;;15.27;6.30;;;;;;;-1.61;88.31;100140.06;6272325;22;20023;-71
2024/01/16 08:53:42;;;;;;;12.75;6.22;;;;;;;-1.58;88.74;100138.09;6272836;22;20039;-71
2024/01/16 08:56:09;;;;;;;15.32;6.80;;;;;;;-1.61;87.75;100137.41;6272234;22;20409;-71
2024/01/16 08:58:37;;;;;;;14.50;6.40;;;;;;;-1.62;88.13;100131.22;6272486;22;20069;-71
2024/01/16 09:01:05;;;;;;;13.48;5.80;;;;;;;-1.65;88.69;100139.38;6272289;22;20161;-70
2024/01/16 09:03:32;;;;;;;16.38;7.00;;;;;;;-1.46;88.21;100139.34;6272170;22;20027;-71
2024/01/16 09:06:00;;;;;;;14.98;7.35;;;;;;;-1.35;88.13;100144.13;6273546;22;20082;-71
2024/01/16 09:08:27;;;;;;;18.58;7.22;;;;;;;-1.24;87.39;100148.94;6272275;22;20027;-70
2024/01/16 09:10:54;;;;;;;19.60;9.45;;;;;;;-1.39;88.00;100150.53;6271807;22;20027;-70
2024/01/16 09:13:20;;;;;;;19.05;6.97;;;;;;;-1.35;88.17;100152.97;6271645;22;20078;-70
2024/01/16 09:15:48;;;;;;;17.25;6.53;;;;;;;-1.35;87.19;100152.13;6245456;22;20019;-70
2024/01/16 09:18:16;;;;;;;11.93;6.40;;;;;;;-1.23;87.16;100159.50;6272214;22;20516;-70
2024/01/16 09:20:43;;;;;;;19.85;6.63;;;;;;;-1.29;87.25;100165.97;6271787;22;20026;-70
2024/01/16 09:23:10;;;;;;;18.17;8.10;;;;;;;-1.54;88.27;100159.25;6271320;22;20032;-70
2024/01/16 09:25:37;;;;;;;16.30;7.00;;;;;;;-1.42;87.98;100161.31;6271736;22;20086;-70
2024/01/16 09:28:03;;;;;;;19.98;7.82;;;;;;;-1.71;89.04;100173.34;6272105;22;20086;-70
2024/01/16 09:30:30;;;;;;;26.75;8.48;;;;;;;-1.83;89.51;100168.59;6246370;22;20019;-69
2024/01/16 09:32:56;;;;;;;22.90;9.65;;;;;;;-1.80;90.33;100166.66;6245971;22;20030;-70
2024/01/16 09:35:23;;;;;;;21.60;10.20;;;;;;;-1.88;90.43;100176.78;6271424;22;20023;-71
2024/01/16 09:37:51;;;;;;;26.25;10.65;;;;;;;-1.78;89.23;100178.06;6270712;22;20055;-71
2024/01/16 09:40:18;;;;;;;21.23;9.05;;;;;;;-1.71;88.95;100173.34;6270707;22;20024;-70
2024/01/16 09:42:45;;;;;;;19.98;10.10;;;;;;;-1.91;90.27;100167.16;6270636;22;20023;-70
2024/01/16 09:45:18;;;;;;;15.52;8.98;;;;;;;-1.83;89.78;100171.25;6271747;22;20070;-70
2024/01/16 09:47:49;;;;;;;16.70;9.77;;;;;;;-1.88;90.18;100167.00;6249489;22;20039;-71
2024/01/16 09:50:20;;;;;;;18.92;8.88;;;;;;;-1.69;90.12;100169.66;6209333;23;20024;-71
2024/01/16 09:52:47;;;;;;;24.75;9.52;;;;;;;-1.61;90.30;100170.19;6228738;23;20016;-71
2024/01/16 09:55:16;;;;;;;22.40;9.75;;;;;;;-1.23;89.50;100166.63;6240676;23;20027;-69
2024/01/16 09:57:45;;;;;;;18.85;9.25;;;;;;;-1.35;88.17;100163.63;6240662;23;20020;-70
2024/01/16 10:00:15;;;;;;;16.65;9.23;;;;;;;-1.47;89.08;100166.84;6241320;23;20451;-70
2024/01/16 10:02:42;;;;;;;15.38;8.63;;;;;;;-1.40;88.94;100167.44;6241355;23;20024;-69
2024/01/16 10:05:10;;;;;;;16.70;8.05;;;;;;;-1.09;87.76;100159.69;6240938;23;20524;-70
2024/01/16 10:07:39;;;;;;;19.92;8.40;;;;;;;-1.10;88.06;100165.94;6240635;23;20020;-70
2024/01/16 10:10:06;;;;;;;15.40;7.57;;;;;;;-0.95;87.70;100176.75;6240760;23;20027;-71
2024/01/16 10:12:33;;;;;;;15.65;7.70;;;;;;;-0.81;87.69;100174.28;6239847;23;20024;-70
2024/01/16 10:15:05;;;;;;;16.85;7.97;;;;;;;-0.59;86.46;100174.06;6241042;23;20125;-70
2024/01/16 10:17:42;;;;;;;15.82;7.80;;;;;;;-0.68;86.09;100175.38;6240960;23;20027;-70
2024/01/16 10:20:13;;;;;;;15.93;7.22;;;;;;;-0.81;85.63;100174.28;6239967;23;20450;-70
2024/01/16 10:22:40;;;;;;;15.00;7.13;;;;;;;-1.04;86.94;100170.97;6241533;23;20020;-70
2024/01/16 10:25:10;;;;;;;11.77;6.95;;;;;;;-1.01;87.67;100178.78;6242013;23;20050;-71
2024/01/16 10:27:39;;;;;;;17.05;8.73;;;;;;;-0.71;87.76;100175.56;6244198;23;20024;-71
2024/01/16 10:30:07;;;;;;;11.45;6.60;;;;;;;-0.52;86.18;100181.66;6244461;23;20028;-72
2024/01/16 10:32:40;;;;;;;15.98;5.80;;;;;;;-0.43;86.00;100178.53;6245220;23;20391;-71
2024/01/16 10:35:08;;;;;;;14.27;5.35;;;;;;;-0.21;85.40;100172.06;6244709;23;20030;-71
2024/01/16 10:37:53;;;;;;;10.43;4.20;;;;;;;-0.01;84.01;100173.66;6244006;23;20359;-70
2024/01/16 10:40:26;;;;;;;10.93;4.07;;;;;;;0.25;81.39;100177.59;6243531;23;20035;-70
2024/01/16 10:43:05;;;;;;;10.63;3.88;;;;;;;0.41;80.68;100181.16;6244454;23;20028;-70
2024/01/16 10:45:33;;;;;;;13.27;3.17;;;;;;;0.43;79.62;100179.25;6243101;23;20020;-70
2024/01/16 10:48:03;;;;;;;12.15;3.50;;;;;;;0.40;79.03;100176.78;6243670;22;20031;-70
2024/01/16 10:50:35;;;;;;;12.55;3.63;;;;;;;0.11;79.11;100184.53;6243244;23;20035;-72
2024/01/16 10:53:06;;;;;;;12.57;3.40;;;;;;;0.06;79.57;100189.25;6244054;23;20027;-71
2024/01/16 10:55:51;;;;;;;7.40;3.20;;;;;;;-0.03;80.84;100187.09;6243717;23;20024;-70
2024/01/16 10:58:25;;;;;;;16.63;4.22;;;;;;;0.04;80.02;100185.81;6245623;23;20020;-72
2024/01/16 11:00:54;;;;;;;11.07;3.22;;;;;;;-0.02;80.83;100179.94;6245799;23;20414;-70
2024/01/16 11:03:34;;;;;;;11.93;2.92;;;;;;;-0.07;81.35;100184.66;6254469;23;20032;-69
2024/01/16 11:06:03;;;;;;;7.97;2.60;;;;;;;-0.11;80.81;100175.97;6251682;23;20024;-70
2024/01/16 11:08:33;;;;;;;13.45;3.28;;;;;;;-0.19;81.44;100176.38;6247578;23;20087;-70
2024/01/16 11:11:01;;;;;;;8.52;2.65;;;;;;;-0.05;80.43;100175.66;6247007;23;20368;-70
2024/01/16 11:13:29;;;;;;;13.80;3.03;;;;;;;-0.18;81.65;100174.56;6246520;23;20023;-71
2024/01/16 11:15:58;;;;;;;12.88;3.38;;;;;;;0.09;80.49;100172.22;6244442;23;20020;-70
2024/01/16 11:18:26;;;;;;;10.63;3.30;;;;;;;-0.00;80.43;100167.38;6243535;23;20028;-70
2024/01/16 11:20:54;;;;;;;14.32;3.33;;;;;;;0.04;80.11;100163.63;6243946;23;20090;-71
2024/01/16 11:23:34;;;;;;;12.80;3.67;;;;;;;0.12;79.63;100162.28;6243578;23;20430;-71
2024/01/16 11:26:28;;;;;;;11.18;3.97;;;;;;;0.11;79.94;100165.00;6217195;23;20078;-73
2024/01/16 11:28:59;;;;;;;10.88;3.38;;;;;;;-0.04;79.90;100161.38;6232541;23;20024;-76
2024/01/16 11:31:31;;;;;;;9.60;3.17;;;;;;;-0.01;80.22;100166.53;6246103;23;20071;-78
2024/01/16 11:34:02;;;;;;;10.27;3.90;;;;;;;-0.16;80.24;100156.72;6248305;23;20071;-79
2024/01/16 11:36:44;;;;;;;13.50;3.75;;;;;;;-0.08;79.07;100162.47;6245279;23;20040;-75
2024/01/16 11:39:17;;;;;;;11.85;4.47;;;;;;;-0.38;80.92;100161.44;6243853;23;20028;-75
2024/01/16 11:41:53;;;;;;;17.83;4.82;;;;;;;-0.22;80.26;100162.34;6243634;23;20119;-77